Time;durP1;ratioP1;P1;durP2;ratioP2;P2;SDS_P1;SDS_P2;PMS_P1;PMS_P2;Temp;Humidity;BMP_temperature;BMP_pressure;BME280_temperature;BME280_humidity;BME280_pressure;Samples;Min_cycle;Max_cycle;Signal;HPM_P1;HPM_P2
2024/01/13 00:01:59;;;;;;;72.68;31.83;;;;;;;;;;6102544;23;20061;-81
2024/01/13 00:04:25;;;;;;;69.10;30.80;;;;;;;;;;6099831;23;20058;-79
2024/01/13 00:06:53;;;;;;;68.53;31.25;;;;;;;;;;6100315;23;20037;-81
2024/01/13 00:09:19;;;;;;;73.13;31.10;;;;;;;;;;6100620;23;20050;-80
2024/01/13 00:11:46;;;;;;;80.10;32.33;;;;;;;;;;6100698;23;20033;-81
2024/01/13 00:14:12;;;;;;;84.10;34.30;;;;;;;;;;6100990;23;20289;-82
2024/01/13 00:16:39;;;;;;;72.35;32.13;;;;;;;;;;6101398;23;20053;-83
2024/01/13 00:19:05;;;;;;;78.75;32.15;;;;;;;;;;6101248;23;20102;-81
2024/01/13 00:21:32;;;;;;;77.40;32.30;;;;;;;;;;6101446;23;20029;-83
2024/01/13 00:23:59;;;;;;;83.00;31.92;;;;;;;;;;6101805;23;20491;-83
2024/01/13 00:26:27;;;;;;;76.25;32.42;;;;;;;;;;6101181;23;20395;-82
2024/01/13 00:28:54;;;;;;;69.35;30.75;;;;;;;;;;6100982;23;20026;-82
2024/01/13 00:31:20;;;;;;;79.50;34.35;;;;;;;;;;6101797;23;20125;-83
2024/01/13 00:33:46;;;;;;;71.82;31.27;;;;;;;;;;6102312;23;20061;-83
2024/01/13 00:36:13;;;;;;;73.10;31.20;;;;;;;;;;6101603;23;20022;-83
2024/01/13 00:38:39;;;;;;;74.78;33.10;;;;;;;;;;6102293;23;20377;-83
2024/01/13 00:41:07;;;;;;;73.32;31.70;;;;;;;;;;6101127;23;20094;-83
2024/01/13 00:43:34;;;;;;;75.32;33.78;;;;;;;;;;6101358;23;20026;-83
2024/01/13 00:46:00;;;;;;;73.63;33.63;;;;;;;;;;6100372;23;20117;-83
2024/01/13 00:48:26;;;;;;;79.15;33.47;;;;;;;;;;6101177;23;20102;-82
2024/01/13 00:50:56;;;;;;;73.25;31.98;;;;;;;;;;6101646;23;20023;-83
2024/01/13 00:53:22;;;;;;;72.85;31.30;;;;;;;;;;6101332;23;20055;-83
2024/01/13 00:55:49;;;;;;;75.05;32.60;;;;;;;;;;6101541;23;20027;-83
2024/01/13 00:58:18;;;;;;;74.40;31.63;;;;;;;;;;6102235;23;20363;-83
2024/01/13 01:00:46;;;;;;;78.65;34.15;;;;;;;;;;6102343;23;20037;-83
2024/01/13 01:03:12;;;;;;;82.63;33.33;;;;;;;;;;6103010;23;20054;-85
2024/01/13 01:05:39;;;;;;;86.47;33.30;;;;;;;;;;6102871;23;20054;-84
2024/01/13 01:08:05;;;;;;;73.80;34.40;;;;;;;;;;6103230;23;20050;-83
2024/01/13 01:10:32;;;;;;;74.38;34.17;;;;;;;;;;6107786;23;20017;-82
2024/01/13 01:12:58;;;;;;;77.80;34.22;;;;;;;;;;6101511;23;20501;-82
2024/01/13 01:15:26;;;;;;;80.40;34.90;;;;;;;;;;6100638;23;20431;-82
2024/01/13 01:17:52;;;;;;;77.60;33.40;;;;;;;;;;6101999;23;20105;-82
2024/01/13 01:20:19;;;;;;;71.68;32.42;;;;;;;;;;6103781;23;20046;-82
2024/01/13 01:22:46;;;;;;;70.90;32.97;;;;;;;;;;6104823;23;20030;-82
2024/01/13 01:25:12;;;;;;;72.47;31.55;;;;;;;;;;6105278;23;20027;-83
2024/01/13 01:27:39;;;;;;;71.80;31.38;;;;;;;;;;6107887;23;20026;-83
2024/01/13 01:30:06;;;;;;;68.43;32.33;;;;;;;;;;6114963;23;20023;-83
2024/01/13 01:32:34;;;;;;;68.78;30.67;;;;;;;;;;6116882;23;20026;-83
2024/01/13 01:35:00;;;;;;;61.30;30.10;;;;;;;;;;6117518;23;20100;-85
2024/01/13 01:37:27;;;;;;;70.80;30.42;;;;;;;;;;6116941;23;20109;-83
2024/01/13 01:39:53;;;;;;;71.65;29.65;;;;;;;;;;6102737;23;20410;-82
2024/01/13 01:42:19;;;;;;;71.88;30.33;;;;;;;;;;6101910;23;20029;-82
2024/01/13 01:44:46;;;;;;;66.88;30.10;;;;;;;;;;6101510;23;20077;-82
2024/01/13 01:47:13;;;;;;;70.97;29.25;;;;;;;;;;6101335;23;20056;-82
2024/01/13 01:49:40;;;;;;;70.45;29.30;;;;;;;;;;6102009;23;20046;-81
2024/01/13 01:52:07;;;;;;;65.25;27.98;;;;;;;;;;6102392;23;20031;-82
2024/01/13 01:54:34;;;;;;;63.35;27.65;;;;;;;;;;6101858;23;20081;-81
2024/01/13 01:57:00;;;;;;;57.58;26.98;;;;;;;;;;6101653;23;20057;-82
2024/01/13 01:59:27;;;;;;;63.47;27.73;;;;;;;;;;6101797;23;20030;-83
2024/01/13 02:01:53;;;;;;;56.33;26.55;;;;;;;;;;6102437;23;20097;-84
2024/01/13 02:04:20;;;;;;;55.80;27.38;;;;;;;;;;6102483;23;20026;-82
2024/01/13 02:06:48;;;;;;;54.78;25.92;;;;;;;;;;6101772;23;20073;-84
2024/01/13 02:09:15;;;;;;;62.60;28.00;;;;;;;;;;6101732;23;20061;-83
2024/01/13 02:11:41;;;;;;;60.15;26.77;;;;;;;;;;6100847;23;20073;-81
2024/01/13 02:14:07;;;;;;;56.83;28.15;;;;;;;;;;6101224;23;20027;-83
2024/01/13 02:16:34;;;;;;;51.40;25.20;;;;;;;;;;6102129;23;20046;-82
2024/01/13 02:19:00;;;;;;;53.90;26.00;;;;;;;;;;6103135;23;20034;-81
2024/01/13 02:21:27;;;;;;;60.65;25.55;;;;;;;;;;6102074;23;20065;-81
2024/01/13 02:23:54;;;;;;;56.38;26.15;;;;;;;;;;6102704;23;20030;-83
2024/01/13 02:26:21;;;;;;;56.50;25.48;;;;;;;;;;6103856;23;20073;-82
2024/01/13 02:28:47;;;;;;;54.40;24.88;;;;;;;;;;6103245;23;20026;-82
2024/01/13 02:31:14;;;;;;;54.58;24.23;;;;;;;;;;6103087;23;20327;-81
2024/01/13 02:33:40;;;;;;;52.83;24.90;;;;;;;;;;6103196;23;20105;-82
2024/01/13 02:36:07;;;;;;;51.15;24.23;;;;;;;;;;6104140;23;20041;-83
2024/01/13 02:38:33;;;;;;;55.05;24.92;;;;;;;;;;6103597;23;20057;-81
2024/01/13 02:41:01;;;;;;;52.75;24.17;;;;;;;;;;6107118;23;20023;-82
2024/01/13 02:43:27;;;;;;;51.78;24.52;;;;;;;;;;6102084;23;20091;-82
2024/01/13 02:45:54;;;;;;;53.75;25.25;;;;;;;;;;6100568;23;20030;-83
2024/01/13 02:48:21;;;;;;;54.58;26.13;;;;;;;;;;6101090;23;20023;-82
2024/01/13 02:50:49;;;;;;;53.80;24.85;;;;;;;;;;6101403;23;20030;-81
2024/01/13 02:53:16;;;;;;;53.08;24.27;;;;;;;;;;6102882;23;20062;-82
2024/01/13 02:55:42;;;;;;;53.63;25.73;;;;;;;;;;6102793;23;20049;-79
2024/01/13 02:58:10;;;;;;;57.30;25.23;;;;;;;;;;6100275;23;20026;-80
2024/01/13 03:00:37;;;;;;;55.78;25.83;;;;;;;;;;6102530;23;20069;-82
2024/01/13 03:03:03;;;;;;;53.88;25.80;;;;;;;;;;6101706;23;20515;-81
2024/01/13 03:05:29;;;;;;;49.50;25.10;;;;;;;;;;6101716;23;20022;-84
2024/01/13 03:07:56;;;;;;;59.35;25.88;;;;;;;;;;6102103;23;20057;-82
2024/01/13 03:10:22;;;;;;;56.17;26.13;;;;;;;;;;6103401;23;20072;-83
2024/01/13 03:12:49;;;;;;;59.40;25.00;;;;;;;;;;6105045;23;20062;-81
2024/01/13 03:15:16;;;;;;;55.40;24.85;;;;;;;;;;6105431;23;20030;-82
2024/01/13 03:17:43;;;;;;;51.47;24.95;;;;;;;;;;6108406;23;20026;-82
2024/01/13 03:20:10;;;;;;;52.13;23.45;;;;;;;;;;6106314;23;20050;-80
2024/01/13 03:22:36;;;;;;;60.38;26.00;;;;;;;;;;6103164;23;20078;-80
2024/01/13 03:25:03;;;;;;;51.30;23.70;;;;;;;;;;6104655;23;20065;-82
2024/01/13 03:27:28;;;;;;;51.58;24.50;;;;;;;;;;6101204;23;20058;-82
2024/01/13 03:29:55;;;;;;;57.00;26.15;;;;;;;;;;6101854;23;20026;-82
2024/01/13 03:32:23;;;;;;;54.38;26.23;;;;;;;;;;6102129;23;20082;-82
2024/01/13 03:34:49;;;;;;;48.25;23.33;;;;;;;;;;6105146;23;20074;-80
2024/01/13 03:37:15;;;;;;;63.45;25.27;;;;;;;;;;6112439;23;20027;-79
2024/01/13 03:39:42;;;;;;;54.85;24.67;;;;;;;;;;6115623;23;20046;-81
2024/01/13 03:42:08;;;;;;;47.78;23.58;;;;;;;;;;6114018;23;20022;-82
2024/01/13 03:44:35;;;;;;;56.72;25.17;;;;;;;;;;6100352;23;20022;-81
2024/01/13 03:47:01;;;;;;;52.33;24.75;;;;;;;;;;6100271;23;20050;-81
2024/01/13 03:49:29;;;;;;;55.63;25.52;;;;;;;;;;6099874;23;20033;-82
2024/01/13 03:51:55;;;;;;;53.30;26.05;;;;;;;;;;6100277;23;20042;-83
2024/01/13 03:54:22;;;;;;;48.50;24.27;;;;;;;;;;6100647;23;20046;-80
2024/01/13 03:56:48;;;;;;;53.05;24.45;;;;;;;;;;6101329;23;20034;-80
2024/01/13 03:59:15;;;;;;;43.95;22.17;;;;;;;;;;6101500;23;20620;-81
2024/01/13 04:01:41;;;;;;;47.15;23.85;;;;;;;;;;6101598;23;20106;-82
2024/01/13 04:04:08;;;;;;;55.55;23.15;;;;;;;;;;6101178;23;20050;-81
2024/01/13 04:06:40;;;;;;;52.53;22.67;;;;;;;;;;6101148;23;20118;-80
2024/01/13 04:09:07;;;;;;;47.78;23.80;;;;;;;;;;6101194;23;20037;-82
2024/01/13 04:11:34;;;;;;;51.10;24.05;;;;;;;;;;6101958;23;20033;-82
2024/01/13 04:14:00;;;;;;;50.67;22.95;;;;;;;;;;6102392;23;20033;-82
2024/01/13 04:16:27;;;;;;;49.13;23.30;;;;;;;;;;6098077;23;20077;-82
2024/01/13 04:18:53;;;;;;;48.88;24.02;;;;;;;;;;6097979;23;20340;-82
2024/01/13 04:21:19;;;;;;;47.95;24.10;;;;;;;;;;6099237;23;20022;-82
2024/01/13 04:23:47;;;;;;;46.50;23.10;;;;;;;;;;6107445;23;20026;-82
2024/01/13 04:26:14;;;;;;;44.63;22.77;;;;;;;;;;6104323;23;20053;-82
2024/01/13 04:28:40;;;;;;;49.63;21.70;;;;;;;;;;6101548;23;20049;-83
2024/01/13 04:31:07;;;;;;;55.90;24.58;;;;;;;;;;6105190;23;20033;-81
2024/01/13 04:33:34;;;;;;;46.78;21.98;;;;;;;;;;6116874;23;20037;-81
2024/01/13 04:36:01;;;;;;;49.63;23.25;;;;;;;;;;6116469;23;20478;-82
2024/01/13 04:38:27;;;;;;;45.75;22.77;;;;;;;;;;6106068;23;20030;-83
2024/01/13 04:40:55;;;;;;;47.33;22.13;;;;;;;;;;6101066;23;20042;-83
2024/01/13 04:43:21;;;;;;;44.15;22.35;;;;;;;;;;6101965;23;20078;-83
2024/01/13 04:45:48;;;;;;;43.20;21.73;;;;;;;;;;6102498;23;20045;-83
2024/01/13 04:48:15;;;;;;;45.42;21.90;;;;;;;;;;6103810;23;20125;-83
2024/01/13 04:50:41;;;;;;;44.03;20.15;;;;;;;;;;6104302;23;20029;-84
2024/01/13 04:53:08;;;;;;;37.47;20.83;;;;;;;;;;6105837;23;20030;-83
2024/01/13 04:55:36;;;;;;;41.13;20.45;;;;;;;;;;6105785;23;20038;-83
2024/01/13 04:58:05;;;;;;;41.65;20.77;;;;;;;;;;6103066;23;20358;-83
2024/01/13 05:00:32;;;;;;;40.60;19.77;;;;;;;;;;6102743;23;20037;-83
2024/01/13 05:02:58;;;;;;;39.08;20.27;;;;;;;;;;6102722;23;20026;-83
2024/01/13 05:05:25;;;;;;;40.10;20.27;;;;;;;;;;6103084;23;20050;-83
2024/01/13 05:07:51;;;;;;;42.63;21.90;;;;;;;;;;6102695;23;20082;-82
2024/01/13 05:10:18;;;;;;;36.35;19.20;;;;;;;;;;6103074;23;20081;-82
2024/01/13 05:12:44;;;;;;;39.33;21.13;;;;;;;;;;6103611;23;20057;-82
2024/01/13 05:15:12;;;;;;;37.10;20.92;;;;;;;;;;6103060;23;20172;-83
2024/01/13 05:17:38;;;;;;;44.88;22.80;;;;;;;;;;6102652;23;20058;-82
2024/01/13 05:20:05;;;;;;;44.78;22.05;;;;;;;;;;6104126;23;20058;-83
2024/01/13 05:22:32;;;;;;;42.85;22.92;;;;;;;;;;6103463;23;20022;-83
2024/01/13 05:24:58;;;;;;;47.95;22.58;;;;;;;;;;6106145;23;20034;-83
2024/01/13 05:27:24;;;;;;;42.58;22.88;;;;;;;;;;6102923;23;20098;-83
2024/01/13 05:29:51;;;;;;;44.80;22.73;;;;;;;;;;6105474;23;20037;-83
2024/01/13 05:32:18;;;;;;;47.83;23.45;;;;;;;;;;6105110;23;20049;-83
2024/01/13 05:34:45;;;;;;;48.42;23.33;;;;;;;;;;6105670;23;20032;-84
2024/01/13 05:37:11;;;;;;;40.45;22.63;;;;;;;;;;6112020;23;20037;-83
2024/01/13 05:39:37;;;;;;;50.25;24.02;;;;;;;;;;6108587;23;20072;-84
2024/01/13 05:42:04;;;;;;;45.78;23.77;;;;;;;;;;6122460;23;20459;-82
2024/01/13 05:44:30;;;;;;;46.70;24.30;;;;;;;;;;6121912;23;20033;-83
2024/01/13 05:46:57;;;;;;;43.53;23.77;;;;;;;;;;6118918;23;20026;-84
2024/01/13 05:49:25;;;;;;;48.05;25.63;;;;;;;;;;6102813;23;20026;-80
2024/01/13 05:51:51;;;;;;;47.08;24.80;;;;;;;;;;6103280;23;20034;-83
2024/01/13 05:54:20;;;;;;;45.25;23.92;;;;;;;;;;6101910;23;20022;-81
2024/01/13 05:56:46;;;;;;;44.13;23.15;;;;;;;;;;6102875;23;20049;-83
2024/01/13 05:59:12;;;;;;;50.58;24.52;;;;;;;;;;6101812;23;20390;-81
2024/01/13 06:01:39;;;;;;;49.58;24.15;;;;;;;;;;6103361;23;20026;-82
2024/01/13 06:04:15;;;;;;;45.50;22.92;;;;;;;;;;6102488;23;20023;-83
2024/01/13 06:07:08;;;;;;;42.13;23.33;;;;;;;;;;6102879;23;20023;-83
2024/01/13 06:09:51;;;;;;;42.75;22.65;;;;;;;;;;6100029;23;20045;-83
2024/01/13 06:12:29;;;;;;;39.35;22.40;;;;;;;;;;6106738;23;20063;-83
2024/01/13 06:14:56;;;;;;;42.20;22.10;;;;;;;;;;6102564;23;20053;-82
2024/01/13 06:17:22;;;;;;;46.53;22.83;;;;;;;;;;6102240;23;20340;-83
2024/01/13 06:19:49;;;;;;;41.72;23.63;;;;;;;;;;6102626;23;20140;-82
2024/01/13 06:22:15;;;;;;;38.00;22.65;;;;;;;;;;6102837;23;20023;-83
2024/01/13 06:24:43;;;;;;;38.65;22.27;;;;;;;;;;6102286;23;20022;-81
2024/01/13 06:27:09;;;;;;;45.10;24.50;;;;;;;;;;6102026;23;20089;-81
2024/01/13 06:29:36;;;;;;;40.88;24.00;;;;;;;;;;6101575;23;20033;-81
2024/01/13 06:32:03;;;;;;;37.38;21.80;;;;;;;;;;6102387;23;20100;-81
2024/01/13 06:34:30;;;;;;;37.88;22.08;;;;;;;;;;6102053;23;20089;-80
2024/01/13 06:36:58;;;;;;;35.20;21.10;;;;;;;;;;6102435;23;20049;-81
2024/01/13 06:39:24;;;;;;;40.42;23.92;;;;;;;;;;6101662;23;20117;-81
2024/01/13 06:41:55;;;;;;;40.30;22.65;;;;;;;;;;6101567;23;20037;-82
2024/01/13 06:44:21;;;;;;;34.78;21.45;;;;;;;;;;6101395;23;20097;-83
2024/01/13 06:46:47;;;;;;;39.08;21.90;;;;;;;;;;6101710;23;20034;-82
2024/01/13 06:49:14;;;;;;;35.75;22.27;;;;;;;;;;6101588;23;20050;-83
2024/01/13 06:51:41;;;;;;;38.35;22.02;;;;;;;;;;6102483;23;20086;-82
2024/01/13 06:54:08;;;;;;;37.58;22.55;;;;;;;;;;6101602;23;20026;-82
2024/01/13 06:56:34;;;;;;;39.80;22.05;;;;;;;;;;6101665;23;20026;-82
2024/01/13 06:59:04;;;;;;;35.15;22.65;;;;;;;;;;6101675;23;20026;-83
2024/01/13 07:01:34;;;;;;;42.95;21.40;;;;;;;;;;6103002;23;20018;-83
2024/01/13 07:04:00;;;;;;;39.95;22.60;;;;;;;;;;6102666;23;20106;-83
2024/01/13 07:06:27;;;;;;;35.10;21.08;;;;;;;;;;6102577;23;20030;-82
2024/01/13 07:08:53;;;;;;;39.63;24.40;;;;;;;;;;6102340;23;20018;-82
2024/01/13 07:11:20;;;;;;;38.55;23.98;;;;;;;;;;6102486;23;20075;-82
2024/01/13 07:13:46;;;;;;;38.42;22.88;;;;;;;;;;6102764;23;20027;-83
2024/01/13 07:16:14;;;;;;;37.63;22.77;;;;;;;;;;6101214;23;20026;-82
2024/01/13 07:18:41;;;;;;;38.58;24.48;;;;;;;;;;6101049;23;20064;-79
2024/01/13 07:21:07;;;;;;;40.97;24.13;;;;;;;;;;6101006;23;20034;-81
2024/01/13 07:23:34;;;;;;;39.70;23.17;;;;;;;;;;6101298;23;20045;-80
2024/01/13 07:26:01;;;;;;;42.00;23.33;;;;;;;;;;6101170;23;20037;-79
2024/01/13 07:28:27;;;;;;;41.95;24.45;;;;;;;;;;6101479;23;20026;-78
2024/01/13 07:30:54;;;;;;;38.85;23.55;;;;;;;;;;6101574;23;20026;-80
2024/01/13 07:33:22;;;;;;;40.10;24.48;;;;;;;;;;6102273;23;20053;-80
2024/01/13 07:35:48;;;;;;;43.05;24.73;;;;;;;;;;6102416;23;20025;-80
2024/01/13 07:38:14;;;;;;;44.42;26.65;;;;;;;;;;6103868;23;20228;-79
2024/01/13 07:40:41;;;;;;;38.80;24.20;;;;;;;;;;6106020;23;20061;-82
2024/01/13 07:43:07;;;;;;;44.40;27.48;;;;;;;;;;6112250;23;20026;-80
2024/01/13 07:45:34;;;;;;;43.25;25.00;;;;;;;;;;6108993;23;20049;-80
2024/01/13 07:48:01;;;;;;;47.55;28.65;;;;;;;;;;6114666;23;20010;-79
2024/01/13 07:50:29;;;;;;;43.17;25.63;;;;;;;;;;6116533;23;20030;-80
2024/01/13 07:52:55;;;;;;;44.42;28.85;;;;;;;;;;6103233;23;20478;-80
2024/01/13 07:55:21;;;;;;;40.47;24.08;;;;;;;;;;6100839;23;20089;-80
2024/01/13 07:57:48;;;;;;;45.65;29.15;;;;;;;;;;6101789;23;20482;-80
2024/01/13 08:00:15;;;;;;;45.38;27.60;;;;;;;;;;6102822;23;20506;-81
2024/01/13 08:02:41;;;;;;;48.22;27.90;;;;;;;;;;6102441;23;20018;-80
2024/01/13 08:05:08;;;;;;;44.40;27.35;;;;;;;;;;6101666;23;20026;-80
2024/01/13 08:07:36;;;;;;;44.63;26.73;;;;;;;;;;6100971;23;20037;-80
2024/01/13 08:10:03;;;;;;;42.63;25.30;;;;;;;;;;6100515;23;20105;-80
2024/01/13 08:12:29;;;;;;;48.10;27.60;;;;;;;;;;6100444;23;20046;-80
2024/01/13 08:14:55;;;;;;;46.63;26.23;;;;;;;;;;6098463;23;20026;-80
2024/01/13 08:17:22;;;;;;;43.08;25.98;;;;;;;;;;6101148;23;20026;-81
2024/01/13 08:19:48;;;;;;;43.63;24.95;;;;;;;;;;6100318;23;20030;-80
2024/01/13 08:22:15;;;;;;;42.75;24.73;;;;;;;;;;6100017;23;20027;-81
2024/01/13 08:24:43;;;;;;;50.00;25.10;;;;;;;;;;6098711;23;20026;-81
2024/01/13 08:27:09;;;;;;;42.20;24.73;;;;;;;;;;6099821;23;20098;-80
2024/01/13 08:29:36;;;;;;;42.25;24.65;;;;;;;;;;6100056;23;20049;-80
2024/01/13 08:32:02;;;;;;;39.97;24.23;;;;;;;;;;6099621;23;20025;-80
2024/01/13 08:34:29;;;;;;;45.22;24.70;;;;;;;;;;6100378;23;20026;-82
2024/01/13 08:36:55;;;;;;;38.45;22.73;;;;;;;;;;6100283;23;20044;-81
2024/01/13 08:39:22;;;;;;;39.72;23.55;;;;;;;;;;6099712;23;20050;-80
2024/01/13 08:41:50;;;;;;;39.35;23.92;;;;;;;;;;6099566;23;20018;-82
2024/01/13 08:44:16;;;;;;;40.25;22.70;;;;;;;;;;6098243;23;20022;-80
2024/01/13 08:46:43;;;;;;;39.65;22.55;;;;;;;;;;6099586;23;20106;-81
2024/01/13 08:49:09;;;;;;;36.20;21.23;;;;;;;;;;6098224;23;20034;-80
2024/01/13 08:51:35;;;;;;;39.33;20.17;;;;;;;;;;6098665;23;20027;-80
2024/01/13 08:54:02;;;;;;;32.03;19.55;;;;;;;;;;6098348;23;20037;-80
2024/01/13 08:56:28;;;;;;;38.30;21.10;;;;;;;;;;6099327;23;20027;-79
2024/01/13 08:58:56;;;;;;;35.67;19.90;;;;;;;;;;6101931;23;20057;-80
2024/01/13 09:01:22;;;;;;;34.08;19.10;;;;;;;;;;6103160;23;20078;-81
2024/01/13 09:03:49;;;;;;;34.15;20.13;;;;;;;;;;6097834;23;20062;-80
2024/01/13 09:06:15;;;;;;;32.60;18.77;;;;;;;;;;6098582;23;20031;-80
2024/01/13 09:08:42;;;;;;;31.88;18.80;;;;;;;;;;6099960;23;20361;-80
2024/01/13 09:11:09;;;;;;;34.08;19.20;;;;;;;;;;6100528;23;20058;-80
2024/01/13 09:13:35;;;;;;;31.27;18.38;;;;;;;;;;6099961;23;20500;-80
2024/01/13 09:16:03;;;;;;;31.02;17.52;;;;;;;;;;6097475;23;20356;-82
2024/01/13 09:18:40;;;;;;;33.03;18.95;;;;;;;;;;6098719;23;20033;-83
2024/01/13 09:21:28;;;;;;;31.90;17.70;;;;;;;;;;6098942;23;20022;-81
2024/01/13 09:24:00;;;;;;;33.05;18.65;;;;;;;;;;6101940;23;20102;-81
2024/01/13 09:26:26;;;;;;;33.00;18.33;;;;;;;;;;6099357;23;20498;-81
2024/01/13 09:28:56;;;;;;;38.40;20.73;;;;;;;;;;6097782;23;20026;-81
2024/01/13 09:31:28;;;;;;;29.90;18.02;;;;;;;;;;6098666;23;20479;-82
2024/01/13 09:34:17;;;;;;;31.23;18.35;;;;;;;;;;6099709;23;20075;-81
2024/01/13 09:36:59;;;;;;;32.95;18.02;;;;;;;;;;6101342;23;20050;-81
2024/01/13 09:39:37;;;;;;;31.05;16.52;;;;;;;;;;6103566;23;20069;-82
2024/01/13 09:42:16;;;;;;;36.65;19.05;;;;;;;;;;6103247;23;20082;-82
2024/01/13 09:44:52;;;;;;;33.88;18.02;;;;;;;;;;6103826;23;20034;-84
2024/01/13 09:47:28;;;;;;;33.45;16.77;;;;;;;;;;6105823;23;20242;-83
2024/01/13 09:53:07;;;;;;;25.85;14.68;;;;;;;;;;6061015;23;20089;-84
2024/01/13 09:55:37;;;;;;;27.02;14.85;;;;;;;;;;6109201;23;20081;-81
2024/01/13 09:58:05;;;;;;;22.58;13.88;;;;;;;;;;6101799;23;20033;-81
2024/01/13 10:00:34;;;;;;;25.30;14.80;;;;;;;;;;6100098;23;20387;-81
2024/01/13 10:03:02;;;;;;;22.05;14.20;;;;;;;;;;6100751;23;20029;-81
2024/01/13 10:05:30;;;;;;;20.52;13.43;;;;;;;;;;6105541;23;20034;-81
2024/01/13 10:07:59;;;;;;;24.73;14.40;;;;;;;;;;6099337;23;20037;-81
2024/01/13 10:10:40;;;;;;;20.55;13.02;;;;;;;;;;6099910;23;20102;-81
2024/01/13 10:13:16;;;;;;;20.85;13.43;;;;;;;;;;6094475;23;20022;-81
2024/01/13 10:15:45;;;;;;;21.98;13.63;;;;;;;;;;6100554;23;20027;-81
2024/01/13 10:18:14;;;;;;;21.20;14.05;;;;;;;;;;6107253;23;20022;-81
2024/01/13 10:20:48;;;;;;;19.90;13.45;;;;;;;;;;6097786;23;20026;-81
2024/01/13 10:23:18;;;;;;;17.00;11.82;;;;;;;;;;6097813;23;20696;-81
2024/01/13 10:26:03;;;;;;;;;;;;;;;;;;;;;
2024/01/13 10:28:30;;;;;;;19.20;12.70;;;;;;;;;;6096320;23;20066;-81
2024/01/13 10:31:01;;;;;;;21.08;12.80;;;;;;;;;;6100692;23;20069;-81
2024/01/13 10:33:31;;;;;;;19.60;12.98;;;;;;;;;;6111718;23;20029;-81
2024/01/13 10:36:26;;;;;;;23.17;14.38;;;;;;;;;;6116173;23;20111;-81
2024/01/13 10:39:41;;;;;;;18.80;12.73;;;;;;;;;;6021631;23;20139;-80
2024/01/13 10:45:40;;;;;;;18.42;11.90;;;;;;;;;;6082430;23;20061;-83
2024/01/13 10:48:19;;;;;;;18.00;12.65;;;;;;;;;;6117390;23;20022;-83
2024/01/13 10:51:02;;;;;;;16.77;11.13;;;;;;;;;;6115441;23;20022;-83
2024/01/13 10:53:42;;;;;;;20.65;12.88;;;;;;;;;;6115210;23;20019;-84
2024/01/13 10:56:13;;;;;;;17.50;11.68;;;;;;;;;;6099850;23;20042;-84
2024/01/13 10:58:40;;;;;;;20.77;12.55;;;;;;;;;;6102199;23;20363;-84
2024/01/13 11:01:09;;;;;;;18.33;12.10;;;;;;;;;;6097199;23;20026;-83
2024/01/13 11:03:39;;;;;;;21.73;12.45;;;;;;;;;;6102153;23;20022;-84
2024/01/13 11:06:22;;;;;;;17.58;11.50;;;;;;;;;;6103296;23;20022;-84
2024/01/13 11:08:48;;;;;;;23.98;12.40;;;;;;;;;;6105591;23;20023;-83
2024/01/13 11:11:19;;;;;;;17.00;12.25;;;;;;;;;;6103382;23;20030;-82
2024/01/13 11:13:48;;;;;;;19.63;12.40;;;;;;;;;;6102565;23;20078;-84
2024/01/13 11:16:16;;;;;;;17.77;11.98;;;;;;;;;;6102854;23;20098;-83
2024/01/13 11:18:49;;;;;;;26.23;13.50;;;;;;;;;;6101098;23;20022;-84
2024/01/13 11:21:22;;;;;;;;;;;;;;;;;;6100486;23;20053;-84
2024/01/13 11:23:58;;;;;;;20.20;11.88;;;;;;;;;;6099412;23;19956;-83
2024/01/13 11:26:37;;;;;;;20.60;11.73;;;;;;;;;;6099159;23;20139;-84
2024/01/13 11:29:05;;;;;;;23.27;14.02;;;;;;;;;;6100871;23;20022;-83
2024/01/13 11:31:31;;;;;;;24.00;12.82;;;;;;;;;;6100873;23;20022;-83
2024/01/13 11:34:00;;;;;;;20.95;13.77;;;;;;;;;;6101012;23;20022;-82
2024/01/13 11:36:28;;;;;;;20.52;13.20;;;;;;;;;;6099693;23;20025;-81
2024/01/13 11:39:04;;;;;;;25.95;14.70;;;;;;;;;;6106109;23;20026;-82
2024/01/13 11:41:37;;;;;;;25.27;14.65;;;;;;;;;;6103574;23;20030;-81
2024/01/13 11:44:03;;;;;;;23.20;14.98;;;;;;;;;;6103043;23;20023;-80
2024/01/13 11:46:33;;;;;;;22.75;14.98;;;;;;;;;;6103183;23;20050;-80
2024/01/13 11:49:00;;;;;;;21.20;13.68;;;;;;;;;;6104211;23;20458;-80
2024/01/13 11:51:55;;;;;;;23.58;14.60;;;;;;;;;;6105788;23;20026;-80
2024/01/13 11:54:22;;;;;;;23.67;14.98;;;;;;;;;;6118370;23;20017;-80
2024/01/13 11:56:49;;;;;;;23.90;15.07;;;;;;;;;;6117095;23;20026;-81
2024/01/13 11:59:16;;;;;;;27.83;16.40;;;;;;;;;;6111466;23;20358;-81
2024/01/13 12:01:44;;;;;;;26.60;14.10;;;;;;;;;;6103018;23;20026;-81
2024/01/13 12:04:10;;;;;;;26.95;15.43;;;;;;;;;;6103289;23;20102;-83
2024/01/13 12:06:37;;;;;;;23.25;15.57;;;;;;;;;;6098750;23;20027;-81
2024/01/13 12:09:04;;;;;;;27.15;14.80;;;;;;;;;;6101036;23;20047;-83
2024/01/13 12:11:31;;;;;;;27.90;15.90;;;;;;;;;;6104991;23;20029;-82
2024/01/13 12:13:58;;;;;;;26.70;15.93;;;;;;;;;;6107620;23;20069;-81
2024/01/13 12:16:28;;;;;;;26.23;15.73;;;;;;;;;;6103477;23;20033;-82
2024/01/13 12:18:55;;;;;;;26.73;15.52;;;;;;;;;;6105523;23;20026;-82
2024/01/13 12:21:22;;;;;;;26.25;16.48;;;;;;;;;;6102995;23;20130;-83
2024/01/13 12:23:48;;;;;;;26.17;16.50;;;;;;;;;;6103527;23;20052;-82
2024/01/13 12:26:15;;;;;;;26.17;16.88;;;;;;;;;;6101187;23;20054;-82
2024/01/13 12:28:43;;;;;;;29.05;17.52;;;;;;;;;;6101795;23;20026;-82
2024/01/13 12:31:10;;;;;;;29.75;16.42;;;;;;;;;;6101495;23;20023;-81
2024/01/13 12:33:36;;;;;;;27.50;16.27;;;;;;;;;;6100730;23;20049;-81
2024/01/13 12:36:04;;;;;;;28.60;16.55;;;;;;;;;;6096095;23;20026;-82
2024/01/13 12:38:31;;;;;;;28.23;17.05;;;;;;;;;;6100166;23;20082;-83
2024/01/13 12:40:58;;;;;;;29.17;17.08;;;;;;;;;;6101114;23;20053;-83
2024/01/13 12:43:25;;;;;;;30.42;17.15;;;;;;;;;;6099640;23;20030;-82
2024/01/13 12:45:54;;;;;;;27.73;17.15;;;;;;;;;;6099573;23;20026;-82
2024/01/13 12:48:20;;;;;;;31.33;17.58;;;;;;;;;;6102090;23;20026;-82
2024/01/13 12:50:47;;;;;;;28.23;16.38;;;;;;;;;;6099879;23;20029;-83
2024/01/13 12:53:13;;;;;;;35.47;17.90;;;;;;;;;;6100521;23;20030;-81
2024/01/13 12:55:41;;;;;;;31.45;17.45;;;;;;;;;;6100227;23;20041;-82
2024/01/13 12:58:07;;;;;;;32.35;17.05;;;;;;;;;;6101230;23;20026;-82
2024/01/13 13:00:33;;;;;;;29.98;17.70;;;;;;;;;;6100999;23;20238;-82
2024/01/13 13:03:02;;;;;;;29.83;18.17;;;;;;;;;;6104257;23;20022;-81
2024/01/13 13:05:28;;;;;;;30.85;18.52;;;;;;;;;;6101555;23;20030;-81
2024/01/13 13:07:55;;;;;;;35.13;19.77;;;;;;;;;;6101613;23;20027;-80
2024/01/13 13:10:21;;;;;;;31.38;19.00;;;;;;;;;;6101940;23;20033;-82
2024/01/13 13:12:49;;;;;;;33.08;19.90;;;;;;;;;;6101275;23;20097;-81
2024/01/13 13:15:16;;;;;;;32.90;18.67;;;;;;;;;;6102190;23;20033;-82
2024/01/13 13:17:42;;;;;;;36.13;19.60;;;;;;;;;;6110986;23;20033;-80
2024/01/13 13:20:11;;;;;;;34.85;20.20;;;;;;;;;;6105323;23;20113;-82
2024/01/13 13:22:37;;;;;;;37.03;19.35;;;;;;;;;;6103678;23;20033;-81
2024/01/13 13:25:07;;;;;;;38.63;21.75;;;;;;;;;;6105754;23;20097;-80
2024/01/13 13:27:33;;;;;;;32.67;18.30;;;;;;;;;;6104724;23;20048;-80
2024/01/13 13:30:00;;;;;;;33.38;19.02;;;;;;;;;;6103716;23;20078;-83
2024/01/13 13:32:26;;;;;;;35.17;18.80;;;;;;;;;;6104350;23;20050;-81
2024/01/13 13:34:53;;;;;;;36.15;20.02;;;;;;;;;;6104019;23;20026;-80
2024/01/13 13:37:21;;;;;;;32.45;19.20;;;;;;;;;;6104066;23;20385;-81
2024/01/13 13:39:47;;;;;;;33.20;19.25;;;;;;;;;;6105117;23;20026;-81
2024/01/13 13:42:13;;;;;;;36.72;19.20;;;;;;;;;;6105082;23;20027;-82
2024/01/13 13:44:40;;;;;;;38.55;20.10;;;;;;;;;;6105139;23;20359;-80
2024/01/13 13:47:06;;;;;;;35.28;20.27;;;;;;;;;;6108982;23;20022;-83
2024/01/13 13:49:33;;;;;;;36.03;20.92;;;;;;;;;;6115559;23;20077;-83
2024/01/13 13:51:59;;;;;;;39.33;20.15;;;;;;;;;;6108229;23;20031;-81
2024/01/13 13:54:27;;;;;;;36.10;19.85;;;;;;;;;;6107379;23;20046;-81
2024/01/13 13:56:53;;;;;;;42.80;21.67;;;;;;;;;;6117302;23;20104;-80
2024/01/13 13:59:20;;;;;;;38.13;21.02;;;;;;;;;;6119704;23;20027;-83
2024/01/13 14:01:46;;;;;;;38.88;21.73;;;;;;;;;;6119781;23;20026;-80
2024/01/13 14:04:16;;;;;;;36.10;19.17;;;;;;;;;;6109710;23;20355;-83
2024/01/13 14:06:42;;;;;;;36.13;19.35;;;;;;;;;;6107638;23;20443;-81
2024/01/13 14:09:09;;;;;;;40.45;21.42;;;;;;;;;;6103546;23;20058;-82
2024/01/13 14:11:37;;;;;;;40.17;20.23;;;;;;;;;;6103763;23;20049;-80
2024/01/13 14:14:03;;;;;;;37.17;20.15;;;;;;;;;;6104000;23;20029;-81
2024/01/13 14:16:30;;;;;;;34.72;19.60;;;;;;;;;;6103373;23;20350;-82
2024/01/13 14:18:56;;;;;;;35.70;20.13;;;;;;;;;;6102467;23;20101;-82
2024/01/13 14:21:23;;;;;;;40.35;22.77;;;;;;;;;;6103478;23;20082;-82
2024/01/13 14:23:50;;;;;;;41.72;20.80;;;;;;;;;;6103625;23;20074;-81
2024/01/13 14:26:17;;;;;;;39.67;21.17;;;;;;;;;;6103879;23;20033;-82
2024/01/13 14:28:46;;;;;;;39.13;20.70;;;;;;;;;;6105600;23;20074;-83
2024/01/13 14:31:15;;;;;;;43.53;21.75;;;;;;;;;;6105846;23;20023;-82